createdAt,value
2023-09-16T00:02:04.544Z,97507.72
2023-09-16T00:04:33.349Z,97509.34
2023-09-16T00:07:01.137Z,97514.81
2023-09-16T00:09:29.185Z,97508.22
2023-09-16T00:11:56.600Z,97501.53
2023-09-16T00:14:25.426Z,97500.13
2023-09-16T00:16:54.212Z,97501.22
2023-09-16T00:19:21.668Z,97502.88
2023-09-16T00:21:50.490Z,97494.09
2023-09-16T00:24:17.868Z,97500.13
2023-09-16T00:26:45.691Z,97507.75
2023-09-16T00:29:13.223Z,97505.53
2023-09-16T00:31:40.834Z,97496.44
2023-09-16T00:34:08.284Z,97491.78
2023-09-16T00:36:35.711Z,97504.91
2023-09-16T00:39:05.431Z,97497.47
2023-09-16T00:41:34.060Z,97496.88
2023-09-16T00:44:01.567Z,97494.16
2023-09-16T00:46:29.463Z,97485.03
2023-09-16T00:48:57.911Z,97488.88
2023-09-16T00:51:25.700Z,97480.66
2023-09-16T00:53:54.017Z,97490.84
2023-09-16T00:56:23.795Z,97480.41
2023-09-16T00:58:51.509Z,97481.19
2023-09-16T01:01:19.384Z,97481.97
2023-09-16T01:03:47.154Z,97480.31
2023-09-16T01:06:17.538Z,97483.59
2023-09-16T01:08:48.795Z,97483.59
2023-09-16T01:11:16.440Z,97482.75
2023-09-16T01:13:48.137Z,97487.69
2023-09-16T01:16:22.715Z,97485.75
2023-09-16T01:18:54.431Z,97486.03
2023-09-16T01:21:23.340Z,97477.22
2023-09-16T01:24:15.486Z,97477.53
2023-09-16T01:26:44.433Z,97482.47
2023-09-16T01:29:14.870Z,97478.25
2023-09-16T01:31:42.998Z,97488.66
2023-09-16T01:34:14.866Z,97484.78
2023-09-16T01:36:43.255Z,97483.41
2023-09-16T01:39:13.139Z,97493.53
2023-09-16T01:41:41.963Z,97486.38
2023-09-16T01:44:11.076Z,97489.38
2023-09-16T01:46:38.581Z,97490.47
2023-09-16T01:49:06.070Z,97492.66
2023-09-16T01:51:33.664Z,97479.19
2023-09-16T01:54:01.071Z,97487.47
2023-09-16T01:56:28.508Z,97487.41
2023-09-16T01:58:55.936Z,97490.16
2023-09-16T02:01:24.764Z,97485.97
2023-09-16T02:03:52.208Z,97487.84
2023-09-16T02:06:19.813Z,97485.41
2023-09-16T02:08:52.390Z,97491.16
2023-09-16T02:11:19.817Z,97495.25
2023-09-16T02:13:48.328Z,97498.75
2023-09-16T02:16:15.984Z,97492.13
2023-09-16T02:18:45.563Z,97500.03
2023-09-16T02:21:15.752Z,97496.72
2023-09-16T02:23:43.304Z,97505.97
2023-09-16T02:26:10.832Z,97504.56
2023-09-16T02:28:38.331Z,97499.53
2023-09-16T02:31:06.069Z,97497.38
2023-09-16T02:33:34.119Z,97503.63
2023-09-16T02:36:03.220Z,97492.31
2023-09-16T02:38:30.781Z,97506.38
2023-09-16T02:40:58.286Z,97497.56
2023-09-16T02:43:25.766Z,97497.06
2023-09-16T02:45:56.873Z,97508.28
2023-09-16T02:48:24.534Z,97511.50
2023-09-16T02:50:52.044Z,97507.63
2023-09-16T02:53:20.868Z,97514.78
2023-09-16T02:55:48.335Z,97512.47
2023-09-16T02:58:16.305Z,97519.97
2023-09-16T03:00:47.560Z,97520.47
2023-09-16T03:03:15.784Z,97527.22
2023-09-16T03:05:46.503Z,97523.81
2023-09-16T03:08:15.613Z,97522.66
2023-09-16T03:10:46.215Z,97527.00
2023-09-16T03:13:13.889Z,97524.97
2023-09-16T03:15:46.809Z,97528.25
2023-09-16T03:18:14.554Z,97527.41
2023-09-16T03:20:43.977Z,97535.31
2023-09-16T03:23:12.406Z,97530.78
2023-09-16T03:25:40.066Z,97542.34
2023-09-16T03:28:11.036Z,97540.41
2023-09-16T03:30:38.563Z,97540.91
2023-09-16T03:33:06.442Z,97541.16
2023-09-16T03:35:35.884Z,97535.44
2023-09-16T03:38:03.873Z,97545.78
2023-09-16T03:40:31.495Z,97530.94
2023-09-16T03:42:59.126Z,97535.84
2023-09-16T03:45:29.968Z,97533.69
2023-09-16T03:48:00.078Z,97534.75
2023-09-16T03:50:28.338Z,97531.38
2023-09-16T03:52:55.680Z,97528.28
2023-09-16T03:55:23.400Z,97530.69
2023-09-16T03:57:50.933Z,97530.69
2023-09-16T04:00:18.529Z,97530.84
2023-09-16T04:02:47.689Z,97524.53
2023-09-16T04:05:15.778Z,97531.34
2023-09-16T04:07:43.522Z,97524.94
2023-09-16T04:10:11.210Z,97522.44
2023-09-16T04:12:38.864Z,97516.97
2023-09-16T04:15:07.500Z,97516.22
2023-09-16T04:17:34.930Z,97508.59
2023-09-16T04:20:07.065Z,97501.38
2023-09-16T04:22:34.702Z,97500.31
2023-09-16T04:25:03.366Z,97487.47
2023-09-16T04:27:31.884Z,97486.03
2023-09-16T04:30:00.363Z,97477.81
2023-09-16T04:32:27.852Z,97481.81
2023-09-16T04:34:59.007Z,97477.25
2023-09-16T04:37:28.884Z,97471.88
2023-09-16T04:39:56.327Z,97483.63
2023-09-16T04:42:30.569Z,97483.22
2023-09-16T04:44:59.884Z,97473.44
2023-09-16T04:47:29.339Z,97477.50
2023-09-16T04:49:57.002Z,97476.16
2023-09-16T04:52:26.583Z,97470.22
2023-09-16T04:54:56.052Z,97466.38
2023-09-16T04:57:23.712Z,97462.56
2023-09-16T04:59:51.607Z,97471.38
2023-09-16T05:02:19.279Z,97465.66
2023-09-16T05:04:46.821Z,97469.47
2023-09-16T05:07:17.204Z,97463.63
2023-09-16T05:09:44.733Z,97461.75
2023-09-16T05:12:13.858Z,97458.69
2023-09-16T05:14:42.629Z,97454.63
2023-09-16T05:17:10.070Z,97455.19
2023-09-16T05:19:37.717Z,97456.34
2023-09-16T05:22:06.242Z,97449.72
2023-09-16T05:24:33.993Z,97448.13
2023-09-16T05:27:01.927Z,97456.63
2023-09-16T05:29:30.736Z,97450.16
2023-09-16T05:31:59.447Z,97455.53
2023-09-16T05:34:27.025Z,97448.16
2023-09-16T05:36:55.019Z,97452.44
2023-09-16T05:39:22.533Z,97448.03
2023-09-16T05:41:50.495Z,97453.50
2023-09-16T05:44:21.269Z,97461.72
2023-09-16T05:46:50.293Z,97458.75
2023-09-16T05:49:18.682Z,97457.00
2023-09-16T05:51:46.193Z,97459.44
2023-09-16T05:54:15.667Z,97455.09
2023-09-16T05:56:43.728Z,97463.41
2023-09-16T05:59:11.458Z,97451.63
2023-09-16T06:01:39.068Z,97462.91
2023-09-16T06:04:09.487Z,97463.00
2023-09-16T06:06:37.543Z,97466.13
2023-09-16T06:09:05.709Z,97460.75
2023-09-16T06:11:34.276Z,97455.66
2023-09-16T06:14:01.817Z,97461.56
2023-09-16T06:16:29.406Z,97467.41
2023-09-16T06:18:56.931Z,97461.00
2023-09-16T06:21:26.163Z,97468.28
2023-09-16T06:23:53.833Z,97463.69
2023-09-16T06:26:21.399Z,97472.38
2023-09-16T06:28:49.254Z,97460.69
2023-09-16T06:31:17.005Z,97462.47
2023-09-16T06:33:50.225Z,97467.97
2023-09-16T06:36:19.551Z,97467.22
2023-09-16T06:38:48.677Z,97462.13
2023-09-16T06:41:16.864Z,97461.72
2023-09-16T06:43:44.479Z,97465.09
2023-09-16T06:46:12.075Z,97472.59
2023-09-16T06:48:39.619Z,97475.13
2023-09-16T06:51:07.184Z,97477.13
2023-09-16T06:53:34.780Z,97486.31
2023-09-16T06:56:04.240Z,97491.63
2023-09-16T06:58:31.710Z,97489.81
2023-09-16T07:00:59.261Z,97477.53
2023-09-16T07:03:26.891Z,97478.41
2023-09-16T07:05:54.359Z,97472.38
2023-09-16T07:08:22.401Z,97474.94
2023-09-16T07:10:49.654Z,97472.50
2023-09-16T07:13:18.503Z,97478.31
2023-09-16T07:15:53.270Z,97487.69
2023-09-16T07:18:20.862Z,97483.31
2023-09-16T07:20:48.884Z,97475.06
2023-09-16T07:23:16.204Z,97482.59
2023-09-16T07:25:43.684Z,97481.53
2023-09-16T07:28:12.172Z,97480.16
2023-09-16T07:30:42.162Z,97491.19
2023-09-16T07:33:09.653Z,97478.00
2023-09-16T07:35:37.168Z,97483.25
2023-09-16T07:38:04.846Z,97485.47
2023-09-16T07:40:33.443Z,97475.00
2023-09-16T07:43:02.000Z,97483.56
2023-09-16T07:45:29.567Z,97477.75
2023-09-16T07:47:58.426Z,97472.41
2023-09-16T07:50:25.910Z,97469.59
2023-09-16T07:52:53.524Z,97472.06
2023-09-16T07:55:21.021Z,97481.97
2023-09-16T07:57:48.495Z,97481.34
2023-09-16T08:00:16.191Z,97481.53
2023-09-16T08:02:44.105Z,97480.34
2023-09-16T08:05:12.852Z,97482.00
2023-09-16T08:07:40.404Z,97484.97
2023-09-16T08:10:08.478Z,97490.63
2023-09-16T08:12:35.944Z,97489.75
2023-09-16T08:15:06.104Z,97498.47
2023-09-16T08:17:33.787Z,97491.31
2023-09-16T08:20:01.756Z,97494.91
2023-09-16T08:22:30.637Z,97494.22
2023-09-16T08:24:58.122Z,97489.53
2023-09-16T08:27:27.059Z,97489.28
2023-09-16T08:29:55.720Z,97493.47
2023-09-16T08:32:29.858Z,97493.22
2023-09-16T08:34:57.612Z,97500.88
2023-09-16T08:37:25.082Z,97496.69
2023-09-16T08:39:53.977Z,97496.59
2023-09-16T08:42:26.613Z,97491.63
2023-09-16T08:44:58.274Z,97497.78
2023-09-16T08:47:29.793Z,97484.28
2023-09-16T08:50:04.500Z,97484.91
2023-09-16T08:52:45.950Z,97483.44
2023-09-16T08:55:15.244Z,97486.22
2023-09-16T08:57:46.845Z,97481.69
2023-09-16T09:00:16.036Z,97481.38
2023-09-16T09:02:44.591Z,97483.44
2023-09-16T09:05:12.784Z,97489.91
2023-09-16T09:07:42.203Z,97482.78
2023-09-16T09:10:13.644Z,97474.69
2023-09-16T09:12:44.138Z,97485.91
2023-09-16T09:15:13.536Z,97489.66
2023-09-16T09:17:43.943Z,97493.22
2023-09-16T09:20:15.538Z,97493.94
2023-09-16T09:22:43.359Z,97495.84
2023-09-16T09:25:11.709Z,97495.25
2023-09-16T09:27:39.227Z,97474.84
2023-09-16T09:30:10.124Z,97495.25
2023-09-16T09:32:38.411Z,97492.16
2023-09-16T09:35:07.158Z,97493.81
2023-09-16T09:37:34.793Z,97493.78
2023-09-16T09:40:07.298Z,97501.00
2023-09-16T09:42:41.578Z,97487.22
2023-09-16T09:45:12.634Z,97490.69
2023-09-16T09:47:41.804Z,97491.50
2023-09-16T09:50:13.536Z,97492.81
2023-09-16T09:52:46.020Z,97487.88
2023-09-16T09:55:14.226Z,97493.94
2023-09-16T09:57:41.869Z,97486.66
2023-09-16T10:00:14.019Z,97475.38
2023-09-16T10:02:42.525Z,97479.91
2023-09-16T10:05:15.281Z,97484.53
2023-09-16T10:07:43.860Z,97481.53
2023-09-16T10:10:17.247Z,97474.47
2023-09-16T10:12:46.233Z,97476.44
2023-09-16T10:15:15.318Z,97481.72
2023-09-16T10:17:45.096Z,97478.06
2023-09-16T10:20:14.454Z,97475.31
2023-09-16T10:22:42.406Z,97467.94
2023-09-16T10:25:12.398Z,97466.47
2023-09-16T10:27:52.446Z,97471.72
2023-09-16T10:30:21.925Z,97472.56
2023-09-16T10:32:49.730Z,97457.69
2023-09-16T10:35:17.700Z,97459.38
2023-09-16T10:37:45.754Z,97459.16
2023-09-16T10:40:14.946Z,97459.81
2023-09-16T10:42:43.161Z,97463.47
2023-09-16T10:45:12.887Z,97459.44
2023-09-16T10:47:42.128Z,97457.16
2023-09-16T10:50:11.065Z,97454.38
2023-09-16T10:52:45.741Z,97450.47
2023-09-16T10:55:16.393Z,97449.50
2023-09-16T10:57:55.723Z,97439.97
2023-09-16T11:00:27.288Z,97443.94
2023-09-16T11:02:59.985Z,97441.97
2023-09-16T11:05:27.822Z,97447.56
2023-09-16T11:07:56.380Z,97441.72
2023-09-16T11:10:24.763Z,97447.34
2023-09-16T11:12:53.280Z,97444.53
2023-09-16T11:15:20.880Z,97439.34
2023-09-16T11:17:48.873Z,97439.88
2023-09-16T11:20:22.457Z,97441.00
2023-09-16T11:22:50.221Z,97435.91
2023-09-16T11:25:18.456Z,97431.78
2023-09-16T11:27:46.528Z,97435.31
2023-09-16T11:30:16.104Z,97435.03
2023-09-16T11:33:25.472Z,97428.50
2023-09-16T11:36:08.110Z,97426.69
2023-09-16T11:38:36.830Z,97430.88
2023-09-16T11:41:10.455Z,97420.97
2023-09-16T11:43:38.830Z,97414.69
2023-09-16T11:46:08.399Z,97412.25
2023-09-16T11:48:56.639Z,97410.00
2023-09-16T11:51:26.099Z,97412.53
2023-09-16T11:53:55.666Z,97410.34
2023-09-16T11:56:24.763Z,97409.00
2023-09-16T11:58:56.130Z,97414.81
2023-09-16T12:01:25.760Z,97409.00
2023-09-16T12:03:55.249Z,97401.28
2023-09-16T12:06:26.938Z,97399.00
2023-09-16T12:08:56.648Z,97401.56
2023-09-16T12:11:24.854Z,97395.03
2023-09-16T12:13:54.238Z,97399.16
2023-09-16T12:16:22.044Z,97394.19
2023-09-16T12:18:49.790Z,97382.94
2023-09-16T12:21:18.276Z,97380.78
2023-09-16T12:23:49.127Z,97382.47
2023-09-16T12:26:16.720Z,97382.09
2023-09-16T12:28:44.242Z,97378.72
2023-09-16T12:31:12.549Z,97378.78
2023-09-16T12:33:41.664Z,97372.34
2023-09-16T12:36:10.273Z,97377.81
2023-09-16T12:38:39.295Z,97374.91
2023-09-16T12:41:09.455Z,97376.13
2023-09-16T12:43:37.356Z,97376.13
2023-09-16T12:46:07.033Z,97373.59
2023-09-16T12:48:35.802Z,97372.56
2023-09-16T12:51:04.104Z,97372.41
2023-09-16T12:53:32.097Z,97368.00
2023-09-16T12:56:04.069Z,97360.91
2023-09-16T12:58:32.993Z,97364.22
2023-09-16T13:01:00.568Z,97362.78
2023-09-16T13:03:28.261Z,97355.84
2023-09-16T13:05:58.344Z,97357.97
2023-09-16T13:08:26.441Z,97355.34
2023-09-16T13:10:57.745Z,97348.91
2023-09-16T13:13:25.372Z,97347.97
2023-09-16T13:15:54.392Z,97347.22
2023-09-16T13:18:22.036Z,97342.22
2023-09-16T13:20:54.394Z,97336.44
2023-09-16T13:23:26.304Z,97335.44
2023-09-16T13:25:55.404Z,97334.66
2023-09-16T13:28:25.034Z,97326.09
2023-09-16T13:30:57.894Z,97334.88
2023-09-16T13:33:44.228Z,97322.19
2023-09-16T13:36:12.015Z,97330.41
2023-09-16T13:38:39.559Z,97318.50
2023-09-16T13:41:07.021Z,97323.66
2023-09-16T13:43:36.869Z,97332.94
2023-09-16T13:46:05.750Z,97323.97
2023-09-16T13:48:35.154Z,97321.41
2023-09-16T13:51:04.104Z,97314.56
2023-09-16T13:53:32.252Z,97322.47
2023-09-16T13:56:00.159Z,97311.09
2023-09-16T13:58:27.822Z,97321.19
2023-09-16T14:00:55.596Z,97326.16
2023-09-16T14:03:24.747Z,97317.72
2023-09-16T14:05:52.513Z,97320.53
2023-09-16T14:08:19.979Z,97313.69
2023-09-16T14:10:47.483Z,97318.00
2023-09-16T14:13:15.545Z,97315.94
2023-09-16T14:15:43.203Z,97331.50
2023-09-16T14:18:11.968Z,97327.38
2023-09-16T14:20:41.056Z,97314.56
2023-09-16T14:23:10.326Z,97316.97
2023-09-16T14:25:37.872Z,97317.19
2023-09-16T14:28:08.031Z,97313.59
2023-09-16T14:30:36.156Z,97322.16
2023-09-16T14:33:04.082Z,97321.94
2023-09-16T14:35:32.749Z,97319.22
2023-09-16T14:38:05.382Z,97322.56
2023-09-16T14:40:33.733Z,97314.00
2023-09-16T14:43:01.632Z,97310.31
2023-09-16T14:45:29.194Z,97309.84
2023-09-16T14:47:56.656Z,97307.22
2023-09-16T14:50:24.187Z,97308.84
2023-09-16T14:52:51.679Z,97314.75
2023-09-16T14:55:20.584Z,97308.91
2023-09-16T14:57:48.051Z,97309.03
2023-09-16T15:00:15.613Z,97317.53
2023-09-16T15:02:43.561Z,97302.47
2023-09-16T15:05:12.946Z,97313.69
2023-09-16T15:07:40.655Z,97316.66
2023-09-16T15:10:09.191Z,97316.34
2023-09-16T15:12:38.094Z,97316.91
2023-09-16T15:15:06.533Z,97308.75
2023-09-16T15:17:34.072Z,97309.06
2023-09-16T15:20:02.079Z,97302.81
2023-09-16T15:22:31.217Z,97312.13
2023-09-16T15:24:58.919Z,97308.69
2023-09-16T15:27:26.946Z,97307.31
2023-09-16T15:29:56.503Z,97311.25
2023-09-16T15:32:44.767Z,97306.97
2023-09-16T15:35:13.634Z,97312.81
2023-09-16T15:37:41.185Z,97315.59
2023-09-16T15:40:09.140Z,97311.16
2023-09-16T15:42:36.774Z,97309.88
2023-09-16T15:45:06.532Z,97319.34
2023-09-16T15:47:34.198Z,97313.84
2023-09-16T15:50:02.156Z,97318.63
2023-09-16T15:52:30.021Z,97317.72
2023-09-16T15:54:57.482Z,97319.94
2023-09-16T15:57:24.937Z,97323.44
2023-09-16T15:59:52.366Z,97322.13
2023-09-16T16:02:21.552Z,97323.81
2023-09-16T16:04:49.721Z,97330.09
2023-09-16T16:07:17.362Z,97325.22
2023-09-16T16:09:51.312Z,97317.13
2023-09-16T16:12:18.864Z,97316.78
2023-09-16T16:14:46.381Z,97315.06
2023-09-16T16:17:23.801Z,97318.84
2023-09-16T16:19:53.619Z,97320.38
2023-09-16T16:22:21.100Z,97323.66
2023-09-16T16:24:48.687Z,97322.75
2023-09-16T16:27:16.272Z,97325.34
2023-09-16T16:29:43.744Z,97333.25
2023-09-16T16:32:11.274Z,97331.03
2023-09-16T16:34:38.709Z,97325.50
2023-09-16T16:37:07.956Z,97324.91
2023-09-16T16:39:35.454Z,97327.59
2023-09-16T16:42:05.637Z,97320.28
2023-09-16T16:44:33.229Z,97327.53
2023-09-16T16:47:01.940Z,97324.81
2023-09-16T16:49:29.813Z,97335.84
2023-09-16T16:51:57.337Z,97324.25
2023-09-16T16:54:26.317Z,97328.91
2023-09-16T16:56:54.315Z,97329.75
2023-09-16T16:59:21.895Z,97318.97
2023-09-16T17:01:49.504Z,97317.53
2023-09-16T17:04:17.055Z,97324.53
2023-09-16T17:06:44.470Z,97320.63
2023-09-16T17:09:12.925Z,97328.06
2023-09-16T17:11:47.696Z,97327.94
2023-09-16T17:14:15.663Z,97332.06
2023-09-16T17:16:43.730Z,97338.97
2023-09-16T17:19:11.684Z,97329.31
2023-09-16T17:21:39.781Z,97328.13
2023-09-16T17:24:08.043Z,97330.44
2023-09-16T17:26:35.600Z,97332.69
2023-09-16T17:29:04.674Z,97336.22
2023-09-16T17:31:32.237Z,97336.97
2023-09-16T17:33:59.831Z,97342.78
2023-09-16T17:36:28.033Z,97339.91
2023-09-16T17:38:55.518Z,97345.03
2023-09-16T17:41:22.908Z,97346.78
2023-09-16T17:43:50.947Z,97350.00
2023-09-16T17:46:20.064Z,97354.19
2023-09-16T17:48:47.679Z,97354.75
2023-09-16T17:51:15.505Z,97358.94
2023-09-16T17:53:43.003Z,97368.00
2023-09-16T17:56:10.422Z,97367.31
2023-09-16T17:58:37.940Z,97371.66
2023-09-16T18:01:05.603Z,97375.09
2023-09-16T18:03:34.572Z,97374.97
2023-09-16T18:06:02.146Z,97369.72
2023-09-16T18:08:29.937Z,97378.44
2023-09-16T18:10:57.450Z,97377.00
2023-09-16T18:13:25.020Z,97378.88
2023-09-16T18:15:54.105Z,97378.25
2023-09-16T18:18:21.629Z,97373.72
2023-09-16T18:20:50.433Z,97378.09
2023-09-16T18:23:17.911Z,97380.47
2023-09-16T18:25:48.176Z,97380.88
2023-09-16T18:28:16.046Z,97379.31
2023-09-16T18:30:43.968Z,97386.66
2023-09-16T18:33:11.427Z,97390.44
2023-09-16T18:35:39.082Z,97392.09
2023-09-16T18:38:20.044Z,97390.22
2023-09-16T18:40:49.041Z,97395.59
2023-09-16T18:43:16.735Z,97395.28
2023-09-16T18:45:44.602Z,97394.00
2023-09-16T18:48:12.926Z,97391.59
2023-09-16T18:50:42.527Z,97391.22
2023-09-16T18:53:12.097Z,97389.16
2023-09-16T18:55:45.066Z,97396.75
2023-09-16T18:58:13.985Z,97395.41
2023-09-16T19:00:42.249Z,97402.44
2023-09-16T19:03:10.056Z,97405.31
2023-09-16T19:05:40.231Z,97418.13
2023-09-16T19:08:08.273Z,97415.72
2023-09-16T19:10:39.155Z,97423.69
2023-09-16T19:13:07.789Z,97432.06
2023-09-16T19:15:35.393Z,97436.25
2023-09-16T19:18:03.048Z,97433.16
2023-09-16T19:20:30.559Z,97439.00
2023-09-16T19:23:00.231Z,97426.63
2023-09-16T19:25:27.820Z,97429.19
2023-09-16T19:27:56.744Z,97437.50
2023-09-16T19:32:57.867Z,97430.16
2023-09-16T19:35:25.649Z,97424.38
2023-09-16T19:37:53.939Z,97428.09
2023-09-16T19:40:23.137Z,97432.00
2023-09-16T19:42:50.708Z,97433.97
2023-09-16T19:45:19.691Z,97434.53
2023-09-16T19:47:47.419Z,97437.31
2023-09-16T19:50:15.102Z,97431.59
2023-09-16T19:52:42.550Z,97442.69
2023-09-16T19:55:10.229Z,97441.03
2023-09-16T19:57:37.779Z,97443.28
2023-09-16T20:00:08.005Z,97438.09
2023-09-16T20:02:37.111Z,97438.38
2023-09-16T20:05:05.084Z,97440.31
2023-09-16T20:07:32.396Z,97439.53
2023-09-16T20:10:00.617Z,97436.78
2023-09-16T20:12:28.079Z,97444.25
2023-09-16T20:14:55.561Z,97443.69
2023-09-16T20:17:23.183Z,97451.41
2023-09-16T20:19:54.407Z,97441.75
2023-09-16T20:22:22.348Z,97436.25
2023-09-16T20:24:49.906Z,97433.50
2023-09-16T20:27:17.453Z,97445.66
2023-09-16T20:29:44.870Z,97446.22
2023-09-16T20:32:12.505Z,97450.66
2023-09-16T20:34:40.194Z,97446.22
2023-09-16T20:37:09.061Z,97446.25
2023-09-16T20:39:37.124Z,97449.84
2023-09-16T20:42:05.420Z,97447.91
2023-09-16T20:44:33.838Z,97458.66
2023-09-16T20:47:01.560Z,97457.81
2023-09-16T20:49:31.132Z,97456.47
2023-09-16T20:51:58.800Z,97457.81
2023-09-16T20:54:27.605Z,97459.50
2023-09-16T20:56:55.087Z,97461.16
2023-09-16T20:59:22.957Z,97456.72
2023-09-16T21:01:50.374Z,97460.03
2023-09-16T21:04:18.157Z,97448.72
2023-09-16T21:06:46.331Z,97450.97
2023-09-16T21:09:13.845Z,97451.47
2023-09-16T21:11:42.780Z,97450.38
2023-09-16T21:14:10.196Z,97452.03
2023-09-16T21:16:37.700Z,97440.19
2023-09-16T21:19:05.371Z,97441.56
2023-09-16T21:21:32.847Z,97438.81
2023-09-16T21:24:00.355Z,97438.81
2023-09-16T21:26:28.715Z,97443.50
2023-09-16T21:28:57.592Z,97428.59
2023-09-16T21:31:25.222Z,97431.66
2023-09-16T21:33:53.653Z,97431.09
2023-09-16T21:36:21.062Z,97434.41
2023-09-16T21:38:48.532Z,97425.31
2023-09-16T21:41:16.114Z,97430.53
2023-09-16T21:43:43.737Z,97430.25
2023-09-16T21:46:13.922Z,97433.81
2023-09-16T21:48:41.928Z,97426.63
2023-09-16T21:51:09.396Z,97420.56
2023-09-16T21:53:36.858Z,97413.13
2023-09-16T21:56:04.288Z,97424.44
2023-09-16T21:58:31.790Z,97416.72
2023-09-16T22:00:59.289Z,97417.53
2023-09-16T22:03:28.231Z,97411.22
2023-09-16T22:05:55.957Z,97412.59
2023-09-16T22:08:23.559Z,97412.59
2023-09-16T22:10:51.146Z,97417.00
2023-09-16T22:13:18.629Z,97422.28
2023-09-16T22:15:46.133Z,97413.41
2023-09-16T22:18:13.562Z,97415.06
2023-09-16T22:20:42.384Z,97412.03
2023-09-16T22:23:10.112Z,97418.03
2023-09-16T22:25:37.776Z,97421.09
2023-09-16T22:28:05.359Z,97424.66
2023-09-16T22:30:32.867Z,97417.19
2023-09-16T22:33:00.330Z,97421.91
2023-09-16T22:35:27.752Z,97416.66
2023-09-16T22:37:56.748Z,97419.13
2023-09-16T22:40:24.237Z,97413.31
2023-09-16T22:42:51.641Z,97422.16
2023-09-16T22:45:19.083Z,97427.94
2023-09-16T22:47:46.831Z,97421.06
2023-09-16T22:50:14.348Z,97421.06
2023-09-16T22:52:42.412Z,97432.38
2023-09-16T22:55:11.429Z,97427.72
2023-09-16T22:57:38.989Z,97433.22
2023-09-16T23:00:07.688Z,97431.56
2023-09-16T23:02:35.399Z,97432.66
2023-09-16T23:05:04.959Z,97430.75
2023-09-16T23:07:32.669Z,97437.66
2023-09-16T23:10:00.182Z,97430.47
2023-09-16T23:12:28.953Z,97433.78
2023-09-16T23:14:56.413Z,97437.94
2023-09-16T23:17:23.899Z,97427.44
2023-09-16T23:19:51.563Z,97430.50
2023-09-16T23:22:19.026Z,97433.53
2023-09-16T23:24:46.510Z,97440.97
2023-09-16T23:27:13.983Z,97445.38
2023-09-16T23:29:42.874Z,97445.63
2023-09-16T23:32:10.300Z,97437.91
2023-09-16T23:34:38.614Z,97438.75
2023-09-16T23:37:06.343Z,97441.19
2023-09-16T23:39:33.754Z,97441.50
2023-09-16T23:42:01.110Z,97441.19
2023-09-16T23:44:28.494Z,97450.03
2023-09-16T23:46:57.368Z,97442.34
2023-09-16T23:49:24.954Z,97439.88
2023-09-16T23:51:52.357Z,97446.78
2023-09-16T23:54:19.813Z,97437.66
2023-09-16T23:56:47.213Z,97437.97
2023-09-16T23:59:14.591Z,97445.94
